Time;durP1;ratioP1;P1;durP2;ratioP2;P2;SDS_P1;SDS_P2;PMS_P1;PMS_P2;Temp;Humidity;BMP_temperature;BMP_pressure;BME280_temperature;BME280_humidity;BME280_pressure;Samples;Min_cycle;Max_cycle;Signal;HPM_P1;HPM_P2
2021/12/21 04:46:42;;;;;;;4.15;2.50;;;;;;;-1.78;66.08;101175.50;5378680;33;20135;-82
2021/12/21 04:49:45;;;;;;;5.57;2.90;;;;;;;-1.68;65.67;101163.50;5379879;33;33219;-82
2021/12/21 04:52:47;;;;;;;2.97;2.42;;;;;;;-1.77;65.96;101171.91;5379134;33;33407;-82
2021/12/21 04:55:51;;;;;;;3.47;2.75;;;;;;;-1.79;66.34;101173.78;5364576;33;33691;-82
2021/12/21 04:58:54;;;;;;;3.03;2.75;;;;;;;-1.80;66.06;101177.34;5397886;33;33702;-82
2021/12/21 05:01:56;;;;;;;3.53;2.60;;;;;;;-1.85;66.21;101176.72;5397559;33;33421;-81
2021/12/21 05:04:59;;;;;;;4.78;2.92;;;;;;;-1.82;66.07;101184.47;5397701;33;33603;-81
2021/12/21 05:11:40;;;;;;;3.47;2.53;;;;;;;-1.95;66.51;101188.69;5364889;33;32872;-81
2021/12/21 05:14:43;;;;;;;3.33;2.60;;;;;;;-1.97;67.13;101196.69;5402066;33;34304;-81
2021/12/21 05:17:46;;;;;;;4.68;2.50;;;;;;;-2.04;66.94;101202.34;5402424;33;34174;-85
2021/12/21 05:20:49;;;;;;;3.17;2.70;;;;;;;-1.98;66.31;101216.09;5397826;33;33378;-85
2021/12/21 05:23:52;;;;;;;5.07;2.62;;;;;;;-1.90;66.10;101211.28;5397502;33;33368;-85
2021/12/21 05:26:55;;;;;;;6.68;2.75;;;;;;;-2.00;66.30;101217.94;5399079;33;33857;-82
2021/12/21 05:29:57;;;;;;;5.40;2.22;;;;;;;-1.99;66.10;101218.78;5406136;33;33892;-82
2021/12/21 05:33:03;;;;;;;4.35;2.70;;;;;;;-2.08;66.39;101220.09;5397480;33;34135;-82
2021/12/21 05:36:05;;;;;;;4.18;2.35;;;;;;;-1.93;65.67;101222.00;5397837;33;33425;-82
2021/12/21 05:39:17;;;;;;;3.15;2.70;;;;;;;-1.85;64.67;101222.44;5398369;33;33296;-81
2021/12/21 05:42:20;;;;;;;2.78;2.42;;;;;;;-1.83;65.24;101217.94;5399226;33;33270;-82
2021/12/21 05:45:23;;;;;;;4.55;3.10;;;;;;;-1.85;65.00;101213.66;5406392;32;33174;-81
2021/12/21 05:48:26;;;;;;;3.37;2.50;;;;;;;-1.85;64.67;101216.31;5418689;32;33614;-81
2021/12/21 05:51:29;;;;;;;5.47;2.78;;;;;;;-1.82;64.09;101224.91;5419527;32;33416;-81
2021/12/21 05:54:31;;;;;;;3.47;2.55;;;;;;;-1.80;64.27;101224.00;5424787;32;34410;-81
2021/12/21 05:57:35;;;;;;;3.47;2.70;;;;;;;-1.83;64.32;101223.22;5428814;32;33755;-81
2021/12/21 06:00:37;;;;;;;4.78;2.75;;;;;;;-1.92;64.77;101226.34;5416629;32;34196;-81
2021/12/21 06:03:40;;;;;;;4.12;2.80;;;;;;;-2.02;66.16;101229.50;5416345;32;33601;-82
2021/12/21 06:06:43;;;;;;;5.03;2.85;;;;;;;-2.12;65.36;101243.16;5416496;32;34663;-81
2021/12/21 06:09:48;;;;;;;4.60;3.20;;;;;;;-2.04;65.43;101241.94;5416444;32;34593;-82
2021/12/21 06:26:00;;;;;;;3.05;2.72;;;;;;;-1.99;64.29;101266.28;5396863;33;33112;-81
2021/12/21 06:29:05;;;;;;;5.35;2.90;;;;;;;-1.90;62.88;101277.25;5397536;33;33462;-81
2021/12/21 06:32:09;;;;;;;3.87;2.83;;;;;;;-1.83;62.81;101273.38;5397510;33;33621;-81
2021/12/21 06:35:13;;;;;;;2.83;2.37;;;;;;;-1.77;62.60;101271.37;5399693;33;33479;-81
2021/12/21 06:38:16;;;;;;;3.10;2.80;;;;;;;-1.84;63.38;101266.41;5398335;33;34842;-81
2021/12/21 06:41:20;;;;;;;4.50;2.80;;;;;;;-1.94;64.34;101270.41;5384205;33;33758;-81
2021/12/21 06:44:23;;;;;;;5.03;3.00;;;;;;;-1.94;63.53;101275.69;5401001;32;33480;-81
2021/12/21 06:54:29;;;;;;;6.47;3.20;;;;;;;-1.64;63.12;101289.16;5316903;33;34809;-82
2021/12/21 06:57:32;;;;;;;3.75;2.70;;;;;;;-1.55;62.94;101286.97;5299242;33;34306;-81
2021/12/21 07:00:35;;;;;;;4.15;2.75;;;;;;;-1.47;62.99;101290.06;5392812;32;34258;-81
2021/12/21 07:03:43;;;;;;;7.70;3.12;;;;;;;-1.44;63.26;101293.41;5397134;33;33136;-81
2021/12/21 07:06:46;;;;;;;3.17;2.60;;;;;;;-1.47;63.61;101295.34;5397837;32;33395;-81
2021/12/21 07:09:58;;;;;;;6.20;3.20;;;;;;;-1.34;64.05;101304.37;5409120;32;33511;-81
2021/12/21 07:19:45;;;;;;;5.03;3.10;;;;;;;-1.21;63.21;101299.31;5400558;33;33772;-82
2021/12/21 07:22:48;;;;;;;4.85;2.80;;;;;;;-1.13;62.80;101298.91;5385491;33;33171;-81
2021/12/21 07:25:51;;;;;;;4.60;3.08;;;;;;;-1.07;62.17;101296.78;5401452;32;34300;-82
2021/12/21 07:28:53;;;;;;;5.15;2.80;;;;;;;-1.02;62.51;101307.13;5388971;32;33480;-82
2021/12/21 07:31:56;;;;;;;4.60;3.00;;;;;;;-0.88;62.06;101304.59;5390365;33;33852;-82
2021/12/21 07:34:59;;;;;;;6.28;2.62;;;;;;;-0.78;62.15;101310.25;5397848;32;34285;-81
2021/12/21 07:38:04;;;;;;;3.25;2.78;;;;;;;-0.66;61.37;101319.34;5391933;32;34248;-81
2021/12/21 07:41:06;;;;;;;4.10;3.33;;;;;;;-0.61;61.55;101315.50;5388235;33;34158;-82
2021/12/21 07:44:10;;;;;;;5.53;3.28;;;;;;;-0.51;60.96;101319.34;5383214;33;33849;-82
2021/12/21 07:47:13;;;;;;;4.75;2.70;;;;;;;-0.41;60.80;101319.72;5397254;32;33702;-85
2021/12/21 07:50:16;;;;;;;6.25;2.97;;;;;;;-0.35;60.10;101313.19;5393528;32;33662;-85
2021/12/21 07:53:19;;;;;;;3.45;3.15;;;;;;;-0.27;60.53;101316.28;5399374;33;33788;-86
2021/12/21 07:56:23;;;;;;;5.55;3.33;;;;;;;-0.39;60.31;101314.31;5392417;33;33424;-82
2021/12/21 07:59:27;;;;;;;5.10;3.10;;;;;;;-0.15;60.41;101315.59;5393626;33;33149;-82
2021/12/21 08:02:30;;;;;;;7.03;3.10;;;;;;;-0.16;60.11;101313.06;5395216;32;33758;-82
2021/12/21 08:05:34;;;;;;;5.37;3.40;;;;;;;-0.07;59.68;101309.88;5391151;33;34536;-82
2021/12/21 08:08:42;;;;;;;5.93;3.40;;;;;;;0.08;59.45;101310.81;5392288;33;33165;-82
2021/12/21 08:15:08;;;;;;;7.00;3.45;;;;;;;0.11;59.10;101323.88;5382742;32;33352;-82
2021/12/21 08:18:11;;;;;;;6.18;3.10;;;;;;;0.13;58.66;101312.25;5389828;32;33390;-82
2021/12/21 08:21:17;;;;;;;5.07;3.28;;;;;;;0.33;58.08;101320.84;5395558;32;33156;-82
2021/12/21 08:24:20;;;;;;;4.22;2.95;;;;;;;0.45;57.88;101326.28;5395260;32;34235;-82
2021/12/21 08:27:22;;;;;;;7.12;3.00;;;;;;;0.54;57.03;101321.37;5393658;32;34788;-82
2021/12/21 08:30:27;;;;;;;3.87;2.90;;;;;;;0.54;57.89;101319.59;5397214;32;32980;-82
2021/12/21 08:33:30;;;;;;;4.18;2.97;;;;;;;0.74;57.14;101325.53;5386161;32;33163;-82
2021/12/21 08:36:33;;;;;;;5.12;3.20;;;;;;;0.80;56.75;101327.81;5389704;32;32341;-82
2021/12/21 08:39:39;;;;;;;5.12;2.92;;;;;;;0.70;57.19;101327.47;5397716;32;33732;-82
2021/12/21 08:42:45;;;;;;;6.60;3.53;;;;;;;0.64;57.84;101334.03;5398777;32;33103;-82
2021/12/21 08:45:50;;;;;;;5.72;3.22;;;;;;;0.73;58.67;101327.28;5387729;32;33697;-82
2021/12/21 08:48:53;;;;;;;11.70;4.35;;;;;;;0.78;58.96;101337.63;5394146;32;32428;-81
2021/12/21 08:51:56;;;;;;;6.72;3.90;;;;;;;0.89;59.31;101340.50;5397356;32;33409;-82
2021/12/21 08:54:59;;;;;;;5.53;3.67;;;;;;;0.95;59.09;101336.62;5397680;32;33894;-82
2021/12/21 08:58:02;;;;;;;5.07;3.55;;;;;;;1.01;59.67;101339.75;5396589;32;34814;-82
2021/12/21 09:01:05;;;;;;;7.28;3.22;;;;;;;1.06;59.80;101342.16;5397755;32;33479;-82
2021/12/21 09:04:07;;;;;;;5.40;3.28;;;;;;;1.07;59.72;101349.13;5398467;32;33465;-82
2021/12/21 09:07:11;;;;;;;8.68;3.35;;;;;;;1.18;60.25;101352.00;5393795;32;33105;-82
2021/12/21 09:10:17;;;;;;;4.20;3.10;;;;;;;1.36;59.70;101358.81;5408947;32;33587;-82
2021/12/21 09:13:20;;;;;;;5.37;3.37;;;;;;;1.36;59.49;101360.62;5395994;33;33410;-82
2021/12/21 09:16:22;;;;;;;7.78;4.20;;;;;;;1.26;59.78;101354.19;5400252;32;33615;-82
2021/12/21 09:19:26;;;;;;;7.45;3.72;;;;;;;1.25;59.94;101360.44;5406281;32;33418;-82
2021/12/21 09:22:36;;;;;;;6.70;3.90;;;;;;;1.02;60.14;101357.34;5410384;32;35179;-82
2021/12/21 09:25:39;;;;;;;5.03;3.55;;;;;;;1.20;60.51;101354.53;5397070;33;33541;-81
2021/12/21 09:28:42;;;;;;;8.02;3.62;;;;;;;1.25;60.24;101357.78;5398074;33;33035;-82
2021/12/21 09:31:44;;;;;;;4.97;3.70;;;;;;;1.39;59.72;101351.63;5398064;33;33915;-82
2021/12/21 09:34:47;;;;;;;8.63;3.70;;;;;;;1.43;59.68;101361.94;5397939;33;33230;-85
2021/12/21 09:37:51;;;;;;;5.68;3.40;;;;;;;1.52;59.49;101352.56;5402440;33;33863;-85
2021/12/21 09:40:55;;;;;;;6.55;3.40;;;;;;;1.62;58.81;101352.84;5410640;32;34830;-85
2021/12/21 09:44:00;;;;;;;6.75;3.58;;;;;;;1.44;58.93;101352.22;5403756;32;34839;-86
2021/12/21 09:47:06;;;;;;;5.25;3.35;;;;;;;1.36;60.30;101350.00;5398001;33;32997;-82
2021/12/21 09:50:11;;;;;;;6.30;3.75;;;;;;;1.52;60.60;101349.91;5395374;33;33809;-82
2021/12/21 09:53:15;;;;;;;5.70;3.90;;;;;;;1.53;61.01;101347.16;5397784;33;33325;-82
2021/12/21 09:56:21;;;;;;;6.82;4.30;;;;;;;1.51;61.56;101345.56;5403770;32;129966;-82
2021/12/21 09:59:23;;;;;;;6.18;3.87;;;;;;;1.46;61.70;101339.69;5393802;33;34130;-82
2021/12/21 10:02:27;;;;;;;5.90;4.18;;;;;;;1.47;62.74;101339.59;5395895;33;33411;-82
2021/12/21 10:05:33;;;;;;;8.20;4.20;;;;;;;1.63;62.61;101328.84;5397149;32;33120;-82
2021/12/21 10:08:37;;;;;;;7.72;4.03;;;;;;;1.67;62.99;101321.53;5397614;33;33991;-82
2021/12/21 10:11:47;;;;;;;5.97;4.30;;;;;;;1.70;62.74;101329.34;5396287;33;33264;-82
2021/12/21 10:15:00;;;;;;;8.82;4.47;;;;;;;1.67;63.18;101325.06;5395981;33;32944;-82
2021/12/21 10:18:04;;;;;;;7.07;4.32;;;;;;;1.79;62.53;101324.28;5396072;32;33789;-82
2021/12/21 10:21:08;;;;;;;8.63;4.57;;;;;;;1.74;62.81;101317.56;5396449;33;34019;-82
2021/12/21 10:24:25;;;;;;;6.70;4.28;;;;;;;1.74;63.03;101321.06;5393488;33;33443;-82
2021/12/21 10:27:28;;;;;;;6.68;4.25;;;;;;;1.81;63.04;101311.78;5396171;33;34663;-82
2021/12/21 10:30:31;;;;;;;7.50;4.28;;;;;;;1.83;63.06;101311.66;5396376;33;33476;-81
2021/12/21 10:33:35;;;;;;;7.70;4.50;;;;;;;1.73;63.03;101311.41;5397037;33;33394;-82
2021/12/21 10:36:57;;;;;;;8.02;5.05;;;;;;;1.82;62.79;101320.59;5395429;33;34055;-81
2021/12/21 10:40:21;;;;;;;10.55;4.80;;;;;;;1.90;62.36;101304.16;5395278;33;33127;-82
2021/12/21 10:43:28;;;;;;;8.52;4.53;;;;;;;1.83;62.48;101305.50;5397139;32;33783;-82
2021/12/21 10:46:33;;;;;;;8.20;4.55;;;;;;;1.87;62.13;101299.88;5395932;33;33336;-82
2021/12/21 10:49:40;;;;;;;5.70;4.00;;;;;;;2.04;62.40;101298.78;5395940;33;33570;-86
2021/12/21 10:52:48;;;;;;;10.05;4.47;;;;;;;2.08;62.45;101299.44;5396590;33;33563;-82
2021/12/21 10:56:09;;;;;;;11.37;5.47;;;;;;;2.03;61.69;101291.78;5396924;33;33420;-82
2021/12/21 10:59:14;;;;;;;7.82;4.68;;;;;;;2.06;61.58;101285.44;5395216;32;33593;-82
2021/12/21 11:02:28;;;;;;;9.90;5.40;;;;;;;2.09;61.79;101282.56;5396040;33;34426;-82
2021/12/21 11:05:31;;;;;;;7.62;5.15;;;;;;;2.24;61.68;101281.56;5400823;33;33587;-82
2021/12/21 11:08:43;;;;;;;9.05;5.18;;;;;;;1.99;61.64;101283.19;5399962;33;33941;-82
2021/12/21 11:11:49;;;;;;;7.90;5.10;;;;;;;2.13;61.73;101279.59;5396268;33;33714;-81
2021/12/21 11:14:55;;;;;;;9.52;5.85;;;;;;;2.20;61.07;101282.72;5395432;33;34432;-81
2021/12/21 11:18:00;;;;;;;8.50;4.97;;;;;;;2.40;60.36;101278.72;5401527;33;34587;-82
2021/12/21 11:21:09;;;;;;;8.43;4.93;;;;;;;2.50;61.00;101264.72;5406234;33;33848;-82
2021/12/21 11:24:15;;;;;;;13.90;4.80;;;;;;;2.40;60.19;101258.31;5397187;33;33551;-82
2021/12/21 11:27:22;;;;;;;10.93;6.07;;;;;;;2.63;58.82;101253.22;5389227;33;33429;-82
2021/12/21 11:30:24;;;;;;;8.77;4.97;;;;;;;2.75;58.50;101260.41;5401358;33;33184;-81
2021/12/21 11:33:30;;;;;;;8.43;4.80;;;;;;;2.93;58.28;101261.78;5402275;33;33604;-82
2021/12/21 11:39:55;;;;;;;8.52;4.72;;;;;;;3.62;55.67;101254.19;5397476;33;33523;-82
2021/12/21 11:43:27;;;;;;;7.10;5.32;;;;;;;3.98;54.21;101255.13;5390556;33;33478;-82
2021/12/21 11:46:50;;;;;;;7.80;4.90;;;;;;;4.09;53.82;101249.84;5381348;33;33694;-86
2021/12/21 11:49:55;;;;;;;6.65;4.62;;;;;;;4.32;52.07;101253.44;5382975;33;33246;-82
2021/12/21 11:53:05;;;;;;;8.70;4.70;;;;;;;4.22;52.57;101246.28;5383510;33;34203;-82
2021/12/21 11:56:09;;;;;;;;;;;;;;;4.53;52.36;101240.31;5383191;33;33571;-81
2021/12/21 11:59:19;;;;;;;7.87;5.00;;;;;;;5.14;51.70;101249.81;5384290;33;34340;-82
2021/12/21 12:02:30;;;;;;;9.38;4.72;;;;;;;4.74;51.20;101250.28;5380169;33;33891;-82
2021/12/21 12:05:34;;;;;;;6.43;4.95;;;;;;;4.68;51.47;101240.94;5379268;33;33375;-82
2021/12/21 12:08:46;;;;;;;9.68;5.40;;;;;;;3.99;52.58;101240.84;5380153;33;33380;-82
2021/12/21 12:11:49;;;;;;;7.50;4.90;;;;;;;3.63;54.59;101241.75;5379054;33;33026;-82
2021/12/21 12:15:00;;;;;;;7.45;4.22;;;;;;;3.83;53.37;101241.13;5381500;33;33377;-82
2021/12/21 12:18:17;;;;;;;8.23;4.47;;;;;;;3.72;54.27;101237.56;5379247;33;34834;-82
2021/12/21 12:21:23;;;;;;;7.65;4.62;;;;;;;4.31;51.77;101241.09;5380777;33;33243;-82
2021/12/21 12:24:35;;;;;;;6.55;4.72;;;;;;;4.75;50.45;101241.31;5380230;33;34614;-82
2021/12/21 12:27:46;;;;;;;6.75;4.62;;;;;;;5.36;48.75;101233.81;5384938;33;33317;-82
2021/12/21 12:30:49;;;;;;;7.30;4.55;;;;;;;5.88;46.76;101231.41;5398610;33;34460;-82
2021/12/21 12:33:52;;;;;;;5.80;4.25;;;;;;;5.84;46.50;101232.63;5389250;33;34909;-82
2021/12/21 12:36:56;;;;;;;7.22;4.47;;;;;;;6.82;44.17;101235.94;5380954;33;34149;-82
2021/12/21 12:40:10;;;;;;;6.40;4.37;;;;;;;7.72;41.80;101226.22;5389155;33;33000;-83
2021/12/21 12:43:24;;;;;;;7.05;3.92;;;;;;;8.63;40.16;101224.16;5379856;33;33821;-87
2021/12/21 12:46:28;;;;;;;5.78;3.90;;;;;;;10.02;37.17;101216.97;5400543;32;33439;-83
2021/12/21 12:49:34;;;;;;;6.90;4.20;;;;;;;10.03;36.41;101219.47;5380819;33;34668;-83
2021/12/21 12:52:36;;;;;;;7.68;3.95;;;;;;;10.28;36.16;101222.44;5379839;33;34339;-83
2021/12/21 12:55:45;;;;;;;6.45;4.03;;;;;;;10.11;36.92;101211.50;5391268;33;34396;-83
2021/12/21 12:59:08;;;;;;;8.43;3.90;;;;;;;10.57;35.26;101216.78;5398557;33;34543;-83
2021/12/21 13:02:11;;;;;;;6.65;3.87;;;;;;;8.81;38.23;101219.72;5396260;33;33373;-82
2021/12/21 13:05:13;;;;;;;11.05;4.70;;;;;;;8.07;40.53;101223.06;5389170;32;34514;-81
2021/12/21 13:08:18;;;;;;;5.20;3.90;;;;;;;7.08;42.58;101238.19;5402223;33;33499;-83
2021/12/21 13:11:26;;;;;;;6.12;4.18;;;;;;;6.19;45.45;101235.06;5398577;33;34406;-83
2021/12/21 13:14:31;;;;;;;7.43;3.72;;;;;;;5.07;47.65;101240.63;5397970;33;34455;-82
2021/12/21 13:17:35;;;;;;;4.93;3.65;;;;;;;3.94;48.83;101240.31;5399096;33;33529;-82
2021/12/21 13:20:38;;;;;;;7.85;4.10;;;;;;;3.27;51.72;101247.88;5401827;32;33418;-83
2021/12/21 13:23:41;;;;;;;4.32;3.75;;;;;;;2.83;53.17;101239.41;5406320;32;33584;-82
2021/12/21 13:26:55;;;;;;;6.22;4.07;;;;;;;2.59;54.25;101247.28;5393142;33;33977;-82
2021/12/21 13:30:05;;;;;;;8.93;4.43;;;;;;;2.36;55.44;101234.72;5391798;33;33087;-83
2021/12/21 13:33:08;;;;;;;7.55;4.60;;;;;;;2.18;56.73;101237.66;5395947;33;34679;-82
2021/12/21 13:36:11;;;;;;;7.30;4.18;;;;;;;2.05;57.84;101236.78;5398333;33;33708;-82
2021/12/21 13:39:14;;;;;;;6.05;4.45;;;;;;;1.90;58.07;101237.78;5397562;32;33169;-82
2021/12/21 13:42:19;;;;;;;8.65;4.75;;;;;;;1.81;59.08;101239.22;5400488;32;33508;-82
2021/12/21 13:45:22;;;;;;;7.68;5.00;;;;;;;1.74;59.89;101236.13;5398078;33;33594;-82
2021/12/21 13:48:25;;;;;;;9.02;5.00;;;;;;;1.60;60.57;101244.13;5397312;33;33786;-82
2021/12/21 13:51:29;;;;;;;9.02;5.25;;;;;;;1.62;61.51;101239.56;5398115;33;33058;-82
2021/12/21 13:54:32;;;;;;;7.03;5.05;;;;;;;1.52;61.64;101236.69;5393705;33;33224;-82
2021/12/21 13:57:35;;;;;;;8.35;5.35;;;;;;;1.48;62.00;101239.59;5399918;33;33629;-82
2021/12/21 14:00:43;;;;;;;9.18;5.35;;;;;;;1.49;62.27;101236.87;5398208;33;33639;-81
2021/12/21 14:04:03;;;;;;;8.00;5.10;;;;;;;1.50;61.88;101243.87;5395712;33;32987;-82
2021/12/21 14:07:07;;;;;;;7.37;4.90;;;;;;;1.41;62.06;101236.50;5394666;33;33102;-83
2021/12/21 14:10:38;;;;;;;8.02;5.00;;;;;;;1.43;61.81;101234.59;5402486;33;34745;-82
2021/12/21 14:13:44;;;;;;;7.57;4.65;;;;;;;1.35;61.37;101234.25;5414701;33;33912;-82
2021/12/21 14:16:50;;;;;;;9.38;5.30;;;;;;;1.27;62.09;101247.13;5401909;33;33572;-82
2021/12/21 14:19:59;;;;;;;9.50;5.35;;;;;;;1.23;62.41;101238.53;5393983;33;32896;-82
2021/12/21 14:23:02;;;;;;;6.15;4.35;;;;;;;1.20;62.64;101248.44;5393527;33;33044;-82
2021/12/21 14:26:18;;;;;;;10.07;5.20;;;;;;;1.16;62.91;101241.66;5397236;33;34412;-82
2021/12/21 14:29:30;;;;;;;6.60;5.00;;;;;;;1.05;63.67;101239.66;5397151;33;33579;-82
2021/12/21 14:33:21;;;;;;;8.57;5.12;;;;;;;1.04;63.14;101241.47;5395327;33;33552;-82
2021/12/21 14:36:00;;;;;;;9.68;5.22;;;;;;;0.91;63.55;101243.19;5396183;33;33503;-82
2021/12/21 14:39:09;;;;;;;11.30;4.97;;;;;;;0.84;64.65;101245.34;5414859;32;33745;-82
2021/12/21 14:42:19;;;;;;;7.57;5.20;;;;;;;0.77;64.57;101249.31;5415464;33;34927;-82
2021/12/21 14:45:26;;;;;;;9.53;5.20;;;;;;;0.67;64.69;101245.50;5414087;32;34884;-81
2021/12/21 14:48:29;;;;;;;7.90;5.00;;;;;;;0.70;65.59;101249.78;5388472;33;34395;-81
2021/12/21 14:51:53;;;;;;;11.93;5.72;;;;;;;0.54;66.55;101253.34;5397618;33;33360;-82
2021/12/21 14:55:09;;;;;;;8.82;5.47;;;;;;;0.50;67.18;101253.63;5396474;33;34020;-82
2021/12/21 14:58:16;;;;;;;10.88;5.35;;;;;;;0.56;66.72;101254.13;5397130;33;33451;-82
2021/12/21 15:01:19;;;;;;;8.75;5.28;;;;;;;0.54;67.45;101260.44;5395206;33;34999;-82
2021/12/21 15:04:24;;;;;;;10.45;5.62;;;;;;;0.51;67.51;101255.34;5413279;33;33370;-82
2021/12/21 15:07:28;;;;;;;10.13;5.75;;;;;;;0.49;67.70;101262.53;5408056;33;33991;-81
2021/12/21 15:10:33;;;;;;;9.73;5.57;;;;;;;0.52;68.11;101263.19;5404178;33;33228;-81
2021/12/21 15:13:36;;;;;;;11.07;6.00;;;;;;;0.33;69.42;101270.53;5405128;33;34193;-81
2021/12/21 15:16:38;;;;;;;11.50;6.62;;;;;;;0.25;69.15;101273.63;5400140;32;33824;-81
2021/12/21 15:19:41;;;;;;;9.93;6.05;;;;;;;0.11;70.60;101269.09;5405846;32;33156;-81
2021/12/21 15:22:44;;;;;;;10.10;5.80;;;;;;;0.11;70.38;101281.50;5401240;33;33660;-81
2021/12/21 15:25:47;;;;;;;9.55;5.57;;;;;;;0.13;70.59;101282.28;5421495;32;34851;-81
2021/12/21 15:28:49;;;;;;;12.68;6.65;;;;;;;0.08;70.23;101286.97;5412298;32;34787;-81
2021/12/21 15:31:53;;;;;;;11.20;6.30;;;;;;;-0.07;71.06;101272.81;5399044;33;34406;-81
2021/12/21 15:35:01;;;;;;;11.57;6.35;;;;;;;-0.14;71.68;101271.47;5394607;33;34243;-80
2021/12/21 15:38:04;;;;;;;12.73;7.07;;;;;;;-0.08;71.88;101274.63;5400899;33;33079;-81
2021/12/21 15:41:07;;;;;;;9.93;6.28;;;;;;;0.02;71.53;101284.69;5393027;33;32375;-81
2021/12/21 15:44:10;;;;;;;11.20;6.10;;;;;;;-0.03;71.30;101277.87;5391490;32;33498;-81
2021/12/21 15:47:15;;;;;;;10.95;5.93;;;;;;;-0.05;71.46;101276.25;5397976;33;35407;-81
2021/12/21 15:50:18;;;;;;;11.12;6.12;;;;;;;-0.05;72.12;101292.13;5400935;33;34003;-81
2021/12/21 15:53:21;;;;;;;8.93;6.05;;;;;;;-0.15;72.78;101283.84;5403833;33;33357;-81
2021/12/21 15:56:24;;;;;;;11.57;6.57;;;;;;;-0.18;72.35;101281.37;5402641;33;33879;-81
2021/12/21 15:59:30;;;;;;;10.13;6.07;;;;;;;-0.15;72.30;101280.34;5405273;33;33474;-80
2021/12/21 16:02:34;;;;;;;11.02;6.15;;;;;;;-0.16;72.64;101286.59;5403176;33;33704;-80
2021/12/21 16:05:37;;;;;;;10.95;5.87;;;;;;;-0.19;72.64;101281.47;5402420;33;34265;-81
2021/12/21 16:08:39;;;;;;;11.38;6.03;;;;;;;-0.10;72.80;101284.44;5400871;33;33471;-81
2021/12/21 16:11:44;;;;;;;11.63;6.25;;;;;;;-0.12;73.03;101282.81;5401527;33;34162;-81
2021/12/21 16:14:46;;;;;;;10.63;6.65;;;;;;;-0.17;73.08;101280.44;5397802;33;33770;-81
2021/12/21 16:17:49;;;;;;;10.45;6.30;;;;;;;-0.24;73.82;101284.34;5397275;33;33941;-81
2021/12/21 16:20:52;;;;;;;12.15;6.55;;;;;;;-0.35;73.53;101278.81;5397873;33;33988;-81
2021/12/21 16:24:15;;;;;;;11.35;5.65;;;;;;;-0.48;74.70;101281.28;5397692;33;33521;-81
2021/12/21 16:27:18;;;;;;;12.00;6.15;;;;;;;-0.52;75.09;101280.63;5396657;33;34193;-84
2021/12/21 16:30:41;;;;;;;10.93;6.07;;;;;;;-0.60;74.74;101282.81;5379964;33;34210;-84
2021/12/21 16:33:45;;;;;;;13.07;7.03;;;;;;;-0.57;74.68;101287.94;5396636;33;34460;-81
2021/12/21 16:36:48;;;;;;;10.50;6.32;;;;;;;-0.54;75.08;101285.13;5398032;33;33716;-81
2021/12/21 16:39:50;;;;;;;10.52;6.65;;;;;;;-0.59;76.08;101288.97;5397441;33;34892;-81
